Time;durP1;ratioP1;P1;durP2;ratioP2;P2;SDS_P1;SDS_P2;PMS_P1;PMS_P2;Temp;Humidity;BMP_temperature;BMP_pressure;BME280_temperature;BME280_humidity;BME280_pressure;Samples;Min_cycle;Max_cycle;Signal;HPM_P1;HPM_P2
2023/12/21 00:01:39;;;;;;;64.68;34.72;;;;;;;;;;6118871;23;20013;-70
2023/12/21 00:04:06;;;;;;;64.57;35.70;;;;;;;;;;6117506;23;20124;-70
2023/12/21 00:06:32;;;;;;;61.30;33.72;;;;;;;;;;6091315;23;20072;-70
2023/12/21 00:08:58;;;;;;;58.63;33.83;;;;;;;;;;6118692;23;20010;-71
2023/12/21 00:11:23;;;;;;;57.10;31.70;;;;;;;;;;6119433;23;20437;-70
2023/12/21 00:13:49;;;;;;;51.17;29.52;;;;;;;;;;6118778;23;20088;-71
2023/12/21 00:16:16;;;;;;;51.92;27.20;;;;;;;;;;6119617;23;20018;-70
2023/12/21 00:18:42;;;;;;;45.83;27.02;;;;;;;;;;6089950;23;20005;-72
2023/12/21 00:21:08;;;;;;;44.90;26.40;;;;;;;;;;6118276;23;20065;-72
2023/12/21 00:23:34;;;;;;;43.55;26.60;;;;;;;;;;6118399;23;20016;-70
2023/12/21 00:26:00;;;;;;;52.60;28.35;;;;;;;;;;6092692;23;20072;-71
2023/12/21 00:28:26;;;;;;;52.88;29.10;;;;;;;;;;6118653;23;20427;-70
2023/12/21 00:30:51;;;;;;;47.92;28.45;;;;;;;;;;6118471;23;20088;-70
2023/12/21 00:33:17;;;;;;;48.53;28.60;;;;;;;;;;6121011;23;20077;-73
2023/12/21 00:35:43;;;;;;;62.47;34.58;;;;;;;;;;6122827;23;20459;-70
2023/12/21 00:38:08;;;;;;;58.50;33.28;;;;;;;;;;6123730;23;20017;-70
2023/12/21 00:40:34;;;;;;;64.95;35.33;;;;;;;;;;6113335;23;20029;-70
2023/12/21 00:43:00;;;;;;;56.85;30.90;;;;;;;;;;6125312;23;20021;-71
2023/12/21 00:45:26;;;;;;;50.20;29.08;;;;;;;;;;6124726;23;20010;-71
2023/12/21 00:47:52;;;;;;;54.45;29.77;;;;;;;;;;6124567;23;20002;-71
2023/12/21 00:50:18;;;;;;;44.65;27.08;;;;;;;;;;6125085;23;20002;-70
2023/12/21 00:52:43;;;;;;;44.47;25.15;;;;;;;;;;6125269;23;20377;-71
2023/12/21 00:55:09;;;;;;;41.80;25.17;;;;;;;;;;6124753;23;20013;-69
2023/12/21 00:57:35;;;;;;;45.88;25.77;;;;;;;;;;6125208;23;20018;-71
2023/12/21 01:00:01;;;;;;;43.38;26.02;;;;;;;;;;6123344;23;20449;-70
2023/12/21 01:02:27;;;;;;;41.97;25.85;;;;;;;;;;6121779;23;20006;-70
2023/12/21 01:04:52;;;;;;;40.40;24.08;;;;;;;;;;6120640;23;20097;-71
2023/12/21 01:07:18;;;;;;;43.28;24.33;;;;;;;;;;6123224;23;20361;-70
2023/12/21 01:09:44;;;;;;;46.38;25.50;;;;;;;;;;6123936;23;20025;-70
2023/12/21 01:12:09;;;;;;;45.72;24.23;;;;;;;;;;6124562;23;20037;-70
2023/12/21 01:14:35;;;;;;;34.78;20.30;;;;;;;;;;6125338;23;20021;-71
2023/12/21 01:17:01;;;;;;;39.38;22.00;;;;;;;;;;6124799;23;20397;-70
2023/12/21 01:19:27;;;;;;;40.22;23.35;;;;;;;;;;6124855;23;20065;-70
2023/12/21 01:21:53;;;;;;;31.45;20.27;;;;;;;;;;6064092;23;20141;-70
2023/12/21 01:24:19;;;;;;;33.30;20.38;;;;;;;;;;6120442;23;20025;-70
2023/12/21 01:26:44;;;;;;;36.58;21.52;;;;;;;;;;6124786;23;20145;-70
2023/12/21 01:29:10;;;;;;;41.72;22.27;;;;;;;;;;6123240;23;20018;-70
2023/12/21 01:31:36;;;;;;;34.85;20.50;;;;;;;;;;6124882;23;20006;-70
2023/12/21 01:34:05;;;;;;;49.95;21.65;;;;;;;;;;6124822;23;20036;-70
2023/12/21 01:36:30;;;;;;;38.55;23.23;;;;;;;;;;6099228;23;20006;-70
2023/12/21 01:38:56;;;;;;;39.65;24.60;;;;;;;;;;6123865;23;20010;-71
2023/12/21 01:41:23;;;;;;;44.53;25.73;;;;;;;;;;6123440;23;20014;-70
2023/12/21 01:43:49;;;;;;;45.88;26.50;;;;;;;;;;6125087;23;20006;-70
2023/12/21 01:46:15;;;;;;;49.15;26.83;;;;;;;;;;6099315;23;20313;-71
2023/12/21 01:48:42;;;;;;;48.20;27.73;;;;;;;;;;6124510;23;20006;-70
2023/12/21 01:51:10;;;;;;;40.55;23.27;;;;;;;;;;6124809;23;20429;-70
2023/12/21 01:53:38;;;;;;;42.65;24.80;;;;;;;;;;6125059;23;20467;-69
2023/12/21 01:56:04;;;;;;;41.20;25.08;;;;;;;;;;6099634;23;20014;-70
2023/12/21 01:58:31;;;;;;;43.53;26.02;;;;;;;;;;6099621;23;20310;-69
2023/12/21 02:00:58;;;;;;;46.88;26.23;;;;;;;;;;6125438;23;20017;-70
2023/12/21 02:03:27;;;;;;;36.65;23.23;;;;;;;;;;6125149;23;20049;-70
2023/12/21 02:05:53;;;;;;;40.92;24.25;;;;;;;;;;6125056;23;20017;-70
2023/12/21 02:08:19;;;;;;;41.38;25.40;;;;;;;;;;6124888;23;20002;-70
2023/12/21 02:10:46;;;;;;;44.97;25.25;;;;;;;;;;6125292;23;20034;-71
2023/12/21 02:13:12;;;;;;;44.63;24.48;;;;;;;;;;6098946;23;20021;-71
2023/12/21 02:15:38;;;;;;;42.88;26.58;;;;;;;;;;6124813;23;20013;-70
2023/12/21 02:18:07;;;;;;;45.42;27.48;;;;;;;;;;6098727;23;20037;-70
2023/12/21 02:20:34;;;;;;;44.60;26.30;;;;;;;;;;6099324;23;20042;-71
2023/12/21 02:23:03;;;;;;;46.72;27.20;;;;;;;;;;6124915;23;20057;-69
2023/12/21 02:25:31;;;;;;;46.97;26.30;;;;;;;;;;6124676;23;20014;-70
2023/12/21 02:27:56;;;;;;;55.78;29.30;;;;;;;;;;6124559;23;20021;-70
2023/12/21 02:30:22;;;;;;;65.45;34.78;;;;;;;;;;6124244;23;20010;-71
2023/12/21 02:32:48;;;;;;;67.15;33.35;;;;;;;;;;6125489;23;20069;-70
2023/12/21 02:35:15;;;;;;;62.75;32.75;;;;;;;;;;6125177;23;20089;-69
2023/12/21 02:37:41;;;;;;;64.00;30.65;;;;;;;;;;6123394;23;20013;-71
2023/12/21 02:40:07;;;;;;;52.28;30.15;;;;;;;;;;6128598;23;20010;-70
2023/12/21 02:42:32;;;;;;;53.97;31.70;;;;;;;;;;6130308;23;20014;-70
2023/12/21 02:44:58;;;;;;;46.40;28.95;;;;;;;;;;6125283;23;20057;-69
2023/12/21 02:47:24;;;;;;;50.30;29.25;;;;;;;;;;6124671;23;20333;-69
2023/12/21 02:49:49;;;;;;;48.72;28.10;;;;;;;;;;6098610;23;20073;-70
2023/12/21 02:52:15;;;;;;;58.30;28.90;;;;;;;;;;6125944;23;20535;-71
2023/12/21 02:54:41;;;;;;;50.67;27.38;;;;;;;;;;6126798;23;20089;-70
2023/12/21 02:57:06;;;;;;;60.60;30.17;;;;;;;;;;6126954;23;20013;-70
2023/12/21 02:59:32;;;;;;;60.83;30.40;;;;;;;;;;6126785;23;19998;-71
2023/12/21 03:01:57;;;;;;;48.88;28.88;;;;;;;;;;6126756;23;20101;-70
2023/12/21 03:04:23;;;;;;;60.35;29.10;;;;;;;;;;6126655;23;20081;-70
2023/12/21 03:06:49;;;;;;;56.92;30.17;;;;;;;;;;6126467;23;20415;-70
2023/12/21 03:09:15;;;;;;;49.30;30.20;;;;;;;;;;6126423;23;20010;-70
2023/12/21 03:11:40;;;;;;;51.33;28.85;;;;;;;;;;6126469;23;20477;-70
2023/12/21 03:14:06;;;;;;;43.75;26.70;;;;;;;;;;6126576;23;20013;-70
2023/12/21 03:16:33;;;;;;;50.45;26.63;;;;;;;;;;6126276;23;20038;-70
2023/12/21 03:18:59;;;;;;;42.45;24.75;;;;;;;;;;6126459;23;20037;-70
2023/12/21 03:21:25;;;;;;;46.30;25.05;;;;;;;;;;6126310;23;20008;-70
2023/12/21 03:23:50;;;;;;;44.35;24.38;;;;;;;;;;6126458;23;20084;-70
2023/12/21 03:26:17;;;;;;;41.97;24.20;;;;;;;;;;6126366;23;20079;-70
2023/12/21 03:28:44;;;;;;;40.53;22.88;;;;;;;;;;6125860;23;20005;-70
2023/12/21 03:31:11;;;;;;;37.60;21.88;;;;;;;;;;6126404;23;20084;-70
2023/12/21 03:33:36;;;;;;;51.03;25.38;;;;;;;;;;6126141;23;20021;-71
2023/12/21 03:36:03;;;;;;;51.47;25.65;;;;;;;;;;6126259;23;20006;-70
2023/12/21 03:38:29;;;;;;;57.38;28.48;;;;;;;;;;6125965;23;20467;-70
2023/12/21 03:40:54;;;;;;;48.78;30.77;;;;;;;;;;6126435;23;20072;-70
2023/12/21 03:43:20;;;;;;;45.75;28.58;;;;;;;;;;6125764;23;20341;-71
2023/12/21 03:45:46;;;;;;;51.40;30.92;;;;;;;;;;6126340;23;20437;-70
2023/12/21 03:48:12;;;;;;;51.40;30.95;;;;;;;;;;6125985;23;20073;-70
2023/12/21 03:50:38;;;;;;;69.43;35.72;;;;;;;;;;6125860;23;20006;-70
2023/12/21 03:53:03;;;;;;;52.95;30.42;;;;;;;;;;6125831;23;20010;-69
2023/12/21 03:55:29;;;;;;;49.78;29.02;;;;;;;;;;6125859;23;20390;-70
2023/12/21 03:57:58;;;;;;;57.10;32.35;;;;;;;;;;6125545;23;20013;-69
2023/12/21 04:00:25;;;;;;;66.85;30.30;;;;;;;;;;6125696;23;20018;-70
2023/12/21 04:02:50;;;;;;;54.58;30.95;;;;;;;;;;6125152;23;20476;-70
2023/12/21 04:05:16;;;;;;;53.92;29.13;;;;;;;;;;6125363;23;20037;-70
2023/12/21 04:07:42;;;;;;;43.50;26.17;;;;;;;;;;6125248;23;20041;-70
2023/12/21 04:10:08;;;;;;;47.83;28.35;;;;;;;;;;6125344;23;20041;-70
2023/12/21 04:12:33;;;;;;;47.40;26.52;;;;;;;;;;6125301;23;20006;-70
2023/12/21 04:14:59;;;;;;;45.22;25.15;;;;;;;;;;6125354;23;20006;-70
2023/12/21 04:17:25;;;;;;;39.78;23.00;;;;;;;;;;6125468;23;20013;-70
2023/12/21 04:19:51;;;;;;;38.95;23.45;;;;;;;;;;6125300;23;20002;-70
2023/12/21 04:22:17;;;;;;;43.40;25.15;;;;;;;;;;6125469;23;20006;-70
2023/12/21 04:24:44;;;;;;;43.00;24.90;;;;;;;;;;6125402;23;20405;-70
2023/12/21 04:27:10;;;;;;;44.50;27.48;;;;;;;;;;6125421;23;20016;-69
2023/12/21 04:29:38;;;;;;;50.42;27.08;;;;;;;;;;6099171;23;20010;-70
2023/12/21 04:32:04;;;;;;;64.28;29.00;;;;;;;;;;6125408;23;20010;-69
2023/12/21 04:34:30;;;;;;;46.00;24.85;;;;;;;;;;6125119;23;20500;-71
2023/12/21 04:36:55;;;;;;;43.95;25.15;;;;;;;;;;6125155;23;20014;-70
2023/12/21 04:39:21;;;;;;;48.08;26.58;;;;;;;;;;6099071;23;20259;-69
2023/12/21 04:41:47;;;;;;;51.83;26.80;;;;;;;;;;6124900;23;20005;-70
2023/12/21 04:44:12;;;;;;;50.95;26.45;;;;;;;;;;6123582;23;20014;-70
2023/12/21 04:46:38;;;;;;;45.80;26.10;;;;;;;;;;6124846;23;20013;-69
2023/12/21 04:49:04;;;;;;;62.25;25.05;;;;;;;;;;6124540;23;20013;-70
2023/12/21 04:51:29;;;;;;;36.92;22.60;;;;;;;;;;6124511;23;20045;-70
2023/12/21 04:53:55;;;;;;;33.30;21.85;;;;;;;;;;6123362;23;20134;-71
2023/12/21 04:56:20;;;;;;;52.75;24.38;;;;;;;;;;6125026;23;20013;-70
2023/12/21 04:58:46;;;;;;;42.55;23.92;;;;;;;;;;6123267;23;20021;-71
2023/12/21 05:01:12;;;;;;;40.17;22.83;;;;;;;;;;6125019;23;20010;-71
2023/12/21 05:03:38;;;;;;;56.90;22.83;;;;;;;;;;6125084;23;20462;-69
2023/12/21 05:06:04;;;;;;;51.30;23.65;;;;;;;;;;6124803;23;20329;-70
2023/12/21 05:08:32;;;;;;;56.88;25.17;;;;;;;;;;6124323;23;20401;-70
2023/12/21 05:10:57;;;;;;;48.85;24.20;;;;;;;;;;6124163;23;20006;-70
2023/12/21 05:13:23;;;;;;;52.03;24.65;;;;;;;;;;6123858;23;20452;-70
2023/12/21 05:15:49;;;;;;;44.15;25.40;;;;;;;;;;6124204;23;20355;-72
2023/12/21 05:18:15;;;;;;;42.05;23.58;;;;;;;;;;6124276;23;20006;-70
2023/12/21 05:20:40;;;;;;;39.13;23.83;;;;;;;;;;6124183;23;20013;-70
2023/12/21 05:23:07;;;;;;;45.92;26.48;;;;;;;;;;6123748;23;20447;-70
2023/12/21 05:25:33;;;;;;;43.90;26.58;;;;;;;;;;6124248;23;20057;-71
2023/12/21 05:27:58;;;;;;;57.72;29.15;;;;;;;;;;6124098;23;20385;-70
2023/12/21 05:30:24;;;;;;;74.15;33.75;;;;;;;;;;6122331;23;20018;-70
2023/12/21 05:32:50;;;;;;;70.13;29.52;;;;;;;;;;6123006;23;20002;-70
2023/12/21 05:35:16;;;;;;;69.70;34.08;;;;;;;;;;6123589;23;20045;-70
2023/12/21 05:37:41;;;;;;;72.68;34.67;;;;;;;;;;6124357;23;20065;-71
2023/12/21 05:40:08;;;;;;;87.80;35.60;;;;;;;;;;6123575;23;20012;-67
2023/12/21 05:42:33;;;;;;;67.28;33.95;;;;;;;;;;6125468;23;20021;-72
2023/12/21 05:44:59;;;;;;;71.63;33.40;;;;;;;;;;6125619;23;20014;-71
2023/12/21 05:47:25;;;;;;;63.65;31.52;;;;;;;;;;6122158;23;20073;-71
2023/12/21 05:49:50;;;;;;;73.05;32.13;;;;;;;;;;6096985;23;20327;-71
2023/12/21 05:52:17;;;;;;;55.88;29.48;;;;;;;;;;6119026;23;20114;-70
2023/12/21 05:54:43;;;;;;;64.70;28.90;;;;;;;;;;6122037;23;20006;-70
2023/12/21 05:57:12;;;;;;;55.50;29.08;;;;;;;;;;6121229;23;20013;-72
2023/12/21 05:59:38;;;;;;;56.70;31.98;;;;;;;;;;6123531;23;20015;-72
2023/12/21 06:02:04;;;;;;;68.63;33.40;;;;;;;;;;6121961;23;20321;-71
2023/12/21 06:04:30;;;;;;;58.80;31.95;;;;;;;;;;6095403;23;20013;-72
2023/12/21 06:06:56;;;;;;;65.72;32.00;;;;;;;;;;6122899;23;20402;-74
2023/12/21 06:09:22;;;;;;;64.40;33.00;;;;;;;;;;6094930;23;20013;-73
2023/12/21 06:11:47;;;;;;;56.72;31.63;;;;;;;;;;6122574;23;20101;-72
2023/12/21 06:14:14;;;;;;;62.38;31.95;;;;;;;;;;6120778;23;20162;-73
2023/12/21 06:16:41;;;;;;;76.78;33.83;;;;;;;;;;6121951;23;20085;-73
2023/12/21 06:19:10;;;;;;;79.57;32.67;;;;;;;;;;6096092;23;20014;-73
2023/12/21 06:21:37;;;;;;;94.38;36.00;;;;;;;;;;6123609;23;20093;-71
2023/12/21 06:24:05;;;;;;;73.78;34.10;;;;;;;;;;6097200;23;20013;-72
2023/12/21 06:26:32;;;;;;;89.28;32.10;;;;;;;;;;6124499;23;20025;-72
2023/12/21 06:28:57;;;;;;;63.25;32.75;;;;;;;;;;6123996;23;20024;-73
2023/12/21 06:31:23;;;;;;;76.53;31.13;;;;;;;;;;6125718;23;20153;-73
2023/12/21 06:33:50;;;;;;;61.60;28.58;;;;;;;;;;6125128;23;20017;-72
2023/12/21 06:36:16;;;;;;;59.85;27.63;;;;;;;;;;6099120;23;20009;-71
2023/12/21 06:38:41;;;;;;;76.32;27.50;;;;;;;;;;6098005;23;20394;-72
2023/12/21 06:41:07;;;;;;;84.68;31.02;;;;;;;;;;6124151;23;20017;-72
2023/12/21 06:43:33;;;;;;;60.85;29.73;;;;;;;;;;6122146;23;20061;-72
2023/12/21 06:46:02;;;;;;;59.03;28.92;;;;;;;;;;6124797;23;20033;-72
2023/12/21 06:48:28;;;;;;;61.92;28.10;;;;;;;;;;6125561;23;20129;-72
2023/12/21 06:50:53;;;;;;;48.53;25.67;;;;;;;;;;6099314;23;20456;-72
2023/12/21 06:53:19;;;;;;;66.68;26.88;;;;;;;;;;6098973;23;20005;-73
2023/12/21 06:55:45;;;;;;;80.88;30.70;;;;;;;;;;6124773;23;20009;-72
2023/12/21 06:58:11;;;;;;;60.20;28.70;;;;;;;;;;6124277;23;20037;-73
2023/12/21 07:00:36;;;;;;;56.92;26.98;;;;;;;;;;6099137;23;20002;-73
2023/12/21 07:03:02;;;;;;;53.05;25.58;;;;;;;;;;6122902;23;20022;-74
2023/12/21 07:05:28;;;;;;;56.45;25.80;;;;;;;;;;6124711;23;20024;-72
2023/12/21 07:07:54;;;;;;;83.15;27.52;;;;;;;;;;6125330;23;20418;-72
2023/12/21 07:10:21;;;;;;;49.42;26.40;;;;;;;;;;6124783;23;20009;-73
2023/12/21 07:12:47;;;;;;;49.47;24.60;;;;;;;;;;6124644;23;20037;-72
2023/12/21 07:15:14;;;;;;;45.00;23.88;;;;;;;;;;6123398;23;20006;-72
2023/12/21 07:17:40;;;;;;;50.85;27.70;;;;;;;;;;6123263;23;20021;-73
2023/12/21 07:20:07;;;;;;;50.42;28.92;;;;;;;;;;6125531;23;20028;-71
2023/12/21 07:22:32;;;;;;;60.20;31.38;;;;;;;;;;6124992;23;20005;-72
2023/12/21 07:24:58;;;;;;;47.97;30.95;;;;;;;;;;6124910;23;20325;-73
2023/12/21 07:27:24;;;;;;;53.58;30.77;;;;;;;;;;6122931;23;20112;-71
2023/12/21 07:29:50;;;;;;;52.58;28.30;;;;;;;;;;6124538;23;20438;-72
2023/12/21 07:32:16;;;;;;;52.88;27.50;;;;;;;;;;6098114;23;20084;-72
2023/12/21 07:34:42;;;;;;;56.25;27.42;;;;;;;;;;6124913;23;20352;-72
2023/12/21 07:37:09;;;;;;;52.47;25.02;;;;;;;;;;6122270;23;20002;-72
2023/12/21 07:39:35;;;;;;;40.15;23.08;;;;;;;;;;6125185;23;20061;-71
2023/12/21 07:42:01;;;;;;;37.88;22.35;;;;;;;;;;6124894;23;20046;-72
2023/12/21 07:44:27;;;;;;;46.70;22.10;;;;;;;;;;6123706;23;20002;-71
2023/12/21 07:46:53;;;;;;;43.08;22.48;;;;;;;;;;6124988;23;20021;-71
2023/12/21 07:49:19;;;;;;;32.67;19.73;;;;;;;;;;6098167;23;20020;-72
2023/12/21 07:51:44;;;;;;;32.90;18.85;;;;;;;;;;6124374;23;20009;-72
2023/12/21 07:54:10;;;;;;;31.55;17.63;;;;;;;;;;6124230;23;20017;-71
2023/12/21 07:56:36;;;;;;;22.08;13.85;;;;;;;;;;6123663;23;20057;-72
2023/12/21 07:59:04;;;;;;;22.45;12.57;;;;;;;;;;6124535;23;20005;-71
2023/12/21 08:01:33;;;;;;;17.98;10.45;;;;;;;;;;6124595;23;20022;-71
2023/12/21 08:03:59;;;;;;;19.80;11.35;;;;;;;;;;6124295;23;20089;-72
2023/12/21 08:06:25;;;;;;;21.85;10.68;;;;;;;;;;6124312;23;20384;-71
2023/12/21 08:08:52;;;;;;;28.63;16.00;;;;;;;;;;6123826;23;20093;-72
2023/12/21 08:11:21;;;;;;;15.23;9.10;;;;;;;;;;6123957;23;20021;-72
2023/12/21 08:13:47;;;;;;;20.80;9.57;;;;;;;;;;6097909;23;20005;-72
2023/12/21 08:16:15;;;;;;;20.30;8.85;;;;;;;;;;6097698;23;20145;-73
2023/12/21 08:18:41;;;;;;;17.92;9.45;;;;;;;;;;6124076;23;20010;-73
2023/12/21 08:21:07;;;;;;;20.65;10.40;;;;;;;;;;6124594;23;20032;-72
2023/12/21 08:23:32;;;;;;;16.67;9.45;;;;;;;;;;6123087;23;20009;-73
2023/12/21 08:25:58;;;;;;;22.42;9.88;;;;;;;;;;6098158;23;20010;-70
2023/12/21 08:28:26;;;;;;;34.90;15.32;;;;;;;;;;6123252;23;20406;-70
2023/12/21 08:30:53;;;;;;;24.08;10.68;;;;;;;;;;6097541;23;20017;-71
2023/12/21 08:33:19;;;;;;;27.00;11.32;;;;;;;;;;6123763;23;20081;-72
2023/12/21 08:35:45;;;;;;;32.30;11.18;;;;;;;;;;6124079;23;20332;-71
2023/12/21 08:38:11;;;;;;;29.20;10.75;;;;;;;;;;6097859;23;20389;-72
2023/12/21 08:40:37;;;;;;;21.63;10.35;;;;;;;;;;6125758;23;20013;-71
2023/12/21 08:43:03;;;;;;;22.80;10.40;;;;;;;;;;6124170;23;20025;-72
2023/12/21 08:45:29;;;;;;;19.95;9.73;;;;;;;;;;6123970;23;20021;-71
2023/12/21 08:47:56;;;;;;;21.80;10.50;;;;;;;;;;6124097;23;20041;-71
2023/12/21 08:50:21;;;;;;;22.80;10.52;;;;;;;;;;6073414;23;20551;-72
2023/12/21 08:52:48;;;;;;;16.83;9.75;;;;;;;;;;6123708;23;20033;-73
2023/12/21 08:55:13;;;;;;;24.67;10.82;;;;;;;;;;6099116;23;20065;-72
2023/12/21 08:57:39;;;;;;;21.27;10.63;;;;;;;;;;6126398;23;20407;-72
2023/12/21 09:00:06;;;;;;;23.63;9.38;;;;;;;;;;6099597;23;20390;-73
2023/12/21 09:02:37;;;;;;;26.00;9.02;;;;;;;;;;6123990;23;20212;-73
2023/12/21 09:05:03;;;;;;;27.90;9.43;;;;;;;;;;6121999;23;20097;-74
2023/12/21 09:07:29;;;;;;;22.08;9.35;;;;;;;;;;6123984;23;20432;-72
2023/12/21 09:09:55;;;;;;;15.27;8.98;;;;;;;;;;6123377;23;20045;-73
2023/12/21 09:12:21;;;;;;;18.30;8.02;;;;;;;;;;6124169;23;20010;-72
2023/12/21 09:14:47;;;;;;;19.42;7.90;;;;;;;;;;6123194;23;20005;-73
2023/12/21 09:17:15;;;;;;;18.42;9.30;;;;;;;;;;6124293;23;20014;-72
2023/12/21 09:19:43;;;;;;;21.02;8.85;;;;;;;;;;6124253;23;20318;-73
2023/12/21 09:22:09;;;;;;;20.00;8.60;;;;;;;;;;6098169;23;20029;-73
2023/12/21 09:24:38;;;;;;;17.17;8.23;;;;;;;;;;6122112;23;20049;-72
2023/12/21 09:27:05;;;;;;;25.25;8.88;;;;;;;;;;6123144;23;20068;-72
2023/12/21 09:29:31;;;;;;;16.25;8.63;;;;;;;;;;6124487;23;20006;-73
2023/12/21 09:31:57;;;;;;;18.92;8.60;;;;;;;;;;6124623;23;20341;-73
2023/12/21 09:34:22;;;;;;;24.90;9.10;;;;;;;;;;6124404;23;20348;-72
2023/12/21 09:36:48;;;;;;;24.27;9.57;;;;;;;;;;6098455;23;20452;-73
2023/12/21 09:39:14;;;;;;;17.77;9.88;;;;;;;;;;6122565;23;20345;-73
2023/12/21 09:41:40;;;;;;;19.33;9.05;;;;;;;;;;6123807;23;20286;-72
2023/12/21 09:44:06;;;;;;;24.92;9.02;;;;;;;;;;6124197;23;20125;-72
2023/12/21 09:46:39;;;;;;;20.88;9.18;;;;;;;;;;6124651;23;20051;-72
2023/12/21 09:49:16;;;;;;;17.42;8.13;;;;;;;;;;6124238;23;20010;-73
2023/12/21 09:51:44;;;;;;;24.80;11.13;;;;;;;;;;6074724;23;20021;-72
2023/12/21 09:54:10;;;;;;;14.57;9.13;;;;;;;;;;6124397;23;20085;-74
2023/12/21 09:56:36;;;;;;;21.98;8.45;;;;;;;;;;6124528;23;20381;-72
2023/12/21 09:59:04;;;;;;;27.65;9.32;;;;;;;;;;6124065;23;20357;-73
2023/12/21 10:01:30;;;;;;;21.30;9.57;;;;;;;;;;6126046;23;20013;-73
2023/12/21 10:03:57;;;;;;;18.90;8.98;;;;;;;;;;6123407;23;20364;-73
2023/12/21 10:06:24;;;;;;;15.68;9.18;;;;;;;;;;6123135;23;20021;-73
2023/12/21 10:08:51;;;;;;;16.45;8.55;;;;;;;;;;6123920;23;20010;-73
2023/12/21 10:11:18;;;;;;;13.88;8.32;;;;;;;;;;6098276;23;20017;-74
2023/12/21 10:13:50;;;;;;;19.13;9.75;;;;;;;;;;6124604;23;20278;-73
2023/12/21 10:16:16;;;;;;;14.00;9.05;;;;;;;;;;6098333;23;20018;-73
2023/12/21 10:18:42;;;;;;;14.23;8.85;;;;;;;;;;6121909;23;20013;-72
2023/12/21 10:21:08;;;;;;;18.88;9.18;;;;;;;;;;6124076;23;20017;-72
2023/12/21 10:23:38;;;;;;;23.75;9.25;;;;;;;;;;6123932;23;20352;-73
2023/12/21 10:26:04;;;;;;;15.65;8.98;;;;;;;;;;6124189;23;20092;-73
2023/12/21 10:28:30;;;;;;;19.75;8.48;;;;;;;;;;6124136;23;20044;-72
2023/12/21 10:31:02;;;;;;;12.55;7.55;;;;;;;;;;6123601;23;20010;-72
2023/12/21 10:33:29;;;;;;;14.00;6.75;;;;;;;;;;6125418;23;20009;-73
2023/12/21 10:35:54;;;;;;;15.27;7.22;;;;;;;;;;6124293;23;20057;-72
2023/12/21 10:38:22;;;;;;;14.68;7.10;;;;;;;;;;6124023;23;20463;-73
2023/12/21 10:40:49;;;;;;;12.52;7.80;;;;;;;;;;6123080;23;20017;-73
2023/12/21 10:43:15;;;;;;;16.13;8.15;;;;;;;;;;6123222;23;20089;-72
2023/12/21 10:45:48;;;;;;;16.98;8.07;;;;;;;;;;6123267;23;20076;-71
2023/12/21 10:48:16;;;;;;;13.20;7.45;;;;;;;;;;6124076;23;20077;-74
2023/12/21 10:50:49;;;;;;;13.05;7.43;;;;;;;;;;6123482;23;20006;-73
2023/12/21 10:53:16;;;;;;;11.27;7.70;;;;;;;;;;6098053;23;20073;-73
2023/12/21 10:55:43;;;;;;;13.93;7.95;;;;;;;;;;6123357;23;20275;-72
2023/12/21 10:58:11;;;;;;;12.73;7.60;;;;;;;;;;6123521;23;20102;-73
2023/12/21 11:00:37;;;;;;;14.95;8.95;;;;;;;;;;6124164;23;20467;-72
2023/12/21 11:03:09;;;;;;;14.73;7.82;;;;;;;;;;6123794;23;20104;-73
2023/12/21 11:05:35;;;;;;;19.75;9.80;;;;;;;;;;6123489;23;20104;-73
2023/12/21 11:08:01;;;;;;;19.20;7.97;;;;;;;;;;6123933;23;20431;-73
2023/12/21 11:10:27;;;;;;;12.68;7.65;;;;;;;;;;6123105;23;20013;-72
2023/12/21 11:12:53;;;;;;;23.02;9.35;;;;;;;;;;6124414;23;20013;-73
2023/12/21 11:15:20;;;;;;;14.80;7.88;;;;;;;;;;6125499;23;20104;-73
2023/12/21 11:18:04;;;;;;;13.32;7.45;;;;;;;;;;6125362;23;20485;-72
2023/12/21 11:20:41;;;;;;;20.08;8.88;;;;;;;;;;6125489;23;20093;-73
2023/12/21 11:23:07;;;;;;;16.25;9.25;;;;;;;;;;6123412;23;20010;-72
2023/12/21 11:25:33;;;;;;;14.25;8.70;;;;;;;;;;6125124;23;20005;-73
2023/12/21 11:28:04;;;;;;;12.27;8.10;;;;;;;;;;6126294;23;20013;-73
2023/12/21 11:30:32;;;;;;;15.88;8.90;;;;;;;;;;6125794;23;20010;-72
2023/12/21 11:33:09;;;;;;;15.43;8.90;;;;;;;;;;6124072;23;20061;-73
2023/12/21 11:35:35;;;;;;;16.67;8.40;;;;;;;;;;6125460;23;20013;-73
2023/12/21 11:38:05;;;;;;;14.32;8.43;;;;;;;;;;6125174;23;20025;-73
2023/12/21 11:40:33;;;;;;;16.95;9.00;;;;;;;;;;6125722;23;20041;-73
2023/12/21 11:43:00;;;;;;;14.38;8.65;;;;;;;;;;6098836;23;20061;-72
2023/12/21 11:45:31;;;;;;;18.02;10.05;;;;;;;;;;6125238;23;20021;-72
2023/12/21 11:48:03;;;;;;;22.73;9.93;;;;;;;;;;6123584;23;20105;-72
2023/12/21 11:50:33;;;;;;;19.65;10.15;;;;;;;;;;6099129;23;20384;-72
2023/12/21 11:53:07;;;;;;;15.68;9.45;;;;;;;;;;6125137;23;20009;-72
2023/12/21 11:55:52;;;;;;;13.73;7.50;;;;;;;;;;6125464;23;20033;-73
2023/12/21 11:58:19;;;;;;;7.88;4.85;;;;;;;;;;6125008;23;20065;-72
2023/12/21 12:00:56;;;;;;;14.70;5.35;;;;;;;;;;6124812;23;20413;-72
2023/12/21 12:03:25;;;;;;;15.38;5.75;;;;;;;;;;6124403;23;20018;-73
2023/12/21 12:05:53;;;;;;;15.45;6.07;;;;;;;;;;6124474;23;20468;-73
2023/12/21 12:08:23;;;;;;;7.85;5.32;;;;;;;;;;6124961;23;20038;-72
2023/12/21 12:10:57;;;;;;;11.88;5.38;;;;;;;;;;6125499;23;20376;-73
2023/12/21 12:13:24;;;;;;;24.20;8.30;;;;;;;;;;6124511;23;20322;-71
2023/12/21 12:15:52;;;;;;;10.40;6.28;;;;;;;;;;6100804;23;20021;-72
2023/12/21 12:18:21;;;;;;;12.27;5.82;;;;;;;;;;6126336;23;20422;-73
2023/12/21 12:20:50;;;;;;;10.15;5.60;;;;;;;;;;6126255;23;20024;-72
2023/12/21 12:23:17;;;;;;;10.25;6.15;;;;;;;;;;6124515;23;20014;-72
2023/12/21 12:25:43;;;;;;;33.45;7.15;;;;;;;;;;6124973;23;20010;-72
2023/12/21 12:28:10;;;;;;;10.98;6.25;;;;;;;;;;6124319;23;20025;-71
2023/12/21 12:30:36;;;;;;;18.20;6.45;;;;;;;;;;6124898;23;20018;-72
2023/12/21 12:33:03;;;;;;;14.77;6.70;;;;;;;;;;6125199;23;20069;-73
2023/12/21 12:35:34;;;;;;;22.15;8.10;;;;;;;;;;6126209;23;20096;-72
2023/12/21 12:38:00;;;;;;;11.23;6.40;;;;;;;;;;6126109;23;20057;-71
2023/12/21 12:40:26;;;;;;;12.75;6.55;;;;;;;;;;6122822;23;20071;-72
2023/12/21 12:42:52;;;;;;;9.70;5.32;;;;;;;;;;6123825;23;20173;-73
2023/12/21 12:45:18;;;;;;;14.32;6.43;;;;;;;;;;6124486;23;20010;-74
2023/12/21 12:47:44;;;;;;;10.85;6.35;;;;;;;;;;6124844;23;20014;-73
2023/12/21 12:50:11;;;;;;;9.57;6.00;;;;;;;;;;6124541;23;20057;-73
2023/12/21 12:52:41;;;;;;;9.10;5.32;;;;;;;;;;6098306;23;20009;-73
2023/12/21 12:55:11;;;;;;;17.33;8.70;;;;;;;;;;6098053;23;20013;-73
2023/12/21 12:57:48;;;;;;;15.88;7.80;;;;;;;;;;6145858;23;20093;-71
2023/12/21 13:00:19;;;;;;;13.23;7.70;;;;;;;;;;6153884;23;20013;-73
2023/12/21 13:02:45;;;;;;;13.68;8.02;;;;;;;;;;6153931;23;20392;-72
2023/12/21 13:05:11;;;;;;;16.80;7.43;;;;;;;;;;6153197;23;20084;-71
2023/12/21 13:07:39;;;;;;;11.73;6.50;;;;;;;;;;6153204;23;20033;-73
2023/12/21 13:10:05;;;;;;;13.45;6.55;;;;;;;;;;6127466;23;20108;-73
2023/12/21 13:12:32;;;;;;;11.13;6.07;;;;;;;;;;6151714;23;20379;-73
2023/12/21 13:14:58;;;;;;;23.30;9.60;;;;;;;;;;6153169;23;20017;-71
2023/12/21 13:17:23;;;;;;;17.27;7.10;;;;;;;;;;6151453;23;20068;-73
2023/12/21 13:19:49;;;;;;;17.77;7.55;;;;;;;;;;6153424;23;20026;-72
2023/12/21 13:22:15;;;;;;;22.52;6.75;;;;;;;;;;6127188;23;20416;-72
2023/12/21 13:24:40;;;;;;;19.77;7.43;;;;;;;;;;6153288;23;20037;-73
2023/12/21 13:27:07;;;;;;;10.60;6.78;;;;;;;;;;6153298;23;20400;-73
2023/12/21 13:29:33;;;;;;;18.10;7.55;;;;;;;;;;6151899;23;20017;-73
2023/12/21 13:32:00;;;;;;;13.10;7.72;;;;;;;;;;6151631;23;20013;-70
2023/12/21 13:34:29;;;;;;;13.65;7.47;;;;;;;;;;6151675;23;20010;-73
2023/12/21 13:36:56;;;;;;;14.52;8.50;;;;;;;;;;6154106;23;20017;-73
2023/12/21 13:39:22;;;;;;;12.43;7.88;;;;;;;;;;6153360;23;20020;-72
2023/12/21 13:41:50;;;;;;;14.98;8.48;;;;;;;;;;6128286;23;20038;-72
2023/12/21 13:44:16;;;;;;;24.35;8.85;;;;;;;;;;6153982;23;20021;-71
2023/12/21 13:46:41;;;;;;;16.77;8.32;;;;;;;;;;6127182;23;20359;-73
2023/12/21 13:49:07;;;;;;;17.25;7.85;;;;;;;;;;6150225;23;20056;-72
2023/12/21 13:51:33;;;;;;;12.77;8.18;;;;;;;;;;6151901;23;20116;-72
2023/12/21 13:53:59;;;;;;;12.80;8.10;;;;;;;;;;6149682;23;20037;-72
2023/12/21 13:56:25;;;;;;;12.98;7.45;;;;;;;;;;6124074;23;20006;-72
2023/12/21 13:58:51;;;;;;;16.42;9.05;;;;;;;;;;6125988;23;20017;-71
2023/12/21 14:01:22;;;;;;;18.75;9.85;;;;;;;;;;6152161;23;20016;-72
2023/12/21 14:03:50;;;;;;;12.20;7.82;;;;;;;;;;6152323;23;20460;-71
2023/12/21 14:06:17;;;;;;;16.48;8.57;;;;;;;;;;6152774;23;20049;-73
2023/12/21 14:08:43;;;;;;;10.48;6.85;;;;;;;;;;6152065;23;20020;-72
2023/12/21 14:11:10;;;;;;;13.20;6.63;;;;;;;;;;6152223;23;20021;-72
2023/12/21 14:13:36;;;;;;;10.50;7.22;;;;;;;;;;6152358;23;20010;-73
2023/12/21 14:16:01;;;;;;;27.00;12.18;;;;;;;;;;6152804;23;20128;-72
2023/12/21 14:18:27;;;;;;;16.13;9.40;;;;;;;;;;6151116;23;20013;-72